Brigg, United Kingdom
Current Conditions -  °F | °C
As of 7:20 AM on Wednesday 22 Oct 2014 (Local Time) from EGNJ Reporting Station
Clear Clear  
Wind Chill:   Ceiling: Unl
Heat Index:   Visibility: 6mi
Dew Point:   Wind: 10mph
Humidity: 87%   Direction: 250°WSW
Pressure: 30.15"   Gusts: NA
Location:  53.55°N, 0.49°W
Report Text: EGNJ 220620Z 25009KT CAVOK 07/05 Q1021
Loading
Personal Weather Stations






























Interactive Weather Map
Tropical Storm Tracking
New forecast layout! Learn more

10-Day Weather Forecast

Advertisements
Track Severe Weather on mobile